sensor_id;sensor_type;location;lat;lon;timestamp;temperature;humidity
22202;DHT22;11266;51.522;6.302;2023-04-29T00:00:25;11.80;99.90
22202;DHT22;11266;51.522;6.302;2023-04-29T00:01:11;11.80;99.90
22202;DHT22;11266;51.522;6.302;2023-04-29T00:01:57;11.80;99.90
22202;DHT22;11266;51.522;6.302;2023-04-29T00:02:44;11.80;99.90
22202;DHT22;11266;51.522;6.302;2023-04-29T00:03:30;11.80;99.90
22202;DHT22;11266;51.522;6.302;2023-04-29T00:04:16;11.80;99.90
22202;DHT22;11266;51.522;6.302;2023-04-29T00:05:02;11.70;99.90
22202;DHT22;11266;51.522;6.302;2023-04-29T00:05:51;11.80;99.90
22202;DHT22;11266;51.522;6.302;2023-04-29T00:06:37;11.80;99.90
22202;DHT22;11266;51.522;6.302;2023-04-29T00:07:23;11.80;99.90
22202;DHT22;11266;51.522;6.302;2023-04-29T00:08:09;11.80;99.90
22202;DHT22;11266;51.522;6.302;2023-04-29T00:08:55;11.80;99.90
22202;DHT22;11266;51.522;6.302;2023-04-29T00:09:41;11.80;99.90
22202;DHT22;11266;51.522;6.302;2023-04-29T00:10:27;11.80;99.90
22202;DHT22;11266;51.522;6.302;2023-04-29T00:11:13;11.80;99.90
22202;DHT22;11266;51.522;6.302;2023-04-29T00:11:59;11.70;99.90
22202;DHT22;11266;51.522;6.302;2023-04-29T00:12:45;11.80;99.90
22202;DHT22;11266;51.522;6.302;2023-04-29T00:13:30;11.80;99.90
22202;DHT22;11266;51.522;6.302;2023-04-29T00:14:16;11.70;99.90
22202;DHT22;11266;51.522;6.302;2023-04-29T00:15:02;11.70;99.90
22202;DHT22;11266;51.522;6.302;2023-04-29T00:15:49;11.60;99.90
22202;DHT22;11266;51.522;6.302;2023-04-29T00:16:35;11.70;99.90
22202;DHT22;11266;51.522;6.302;2023-04-29T00:17:22;11.70;99.90
22202;DHT22;11266;51.522;6.302;2023-04-29T00:18:07;11.70;99.90
22202;DHT22;11266;51.522;6.302;2023-04-29T00:18:54;11.70;99.90
22202;DHT22;11266;51.522;6.302;2023-04-29T00:19:40;11.70;99.90
22202;DHT22;11266;51.522;6.302;2023-04-29T00:20:26;11.60;99.90
22202;DHT22;11266;51.522;6.302;2023-04-29T00:21:12;11.80;99.90
22202;DHT22;11266;51.522;6.302;2023-04-29T00:21:57;11.70;99.90
22202;DHT22;11266;51.522;6.302;2023-04-29T00:22:44;11.60;99.90
22202;DHT22;11266;51.522;6.302;2023-04-29T00:23:29;11.60;99.90
22202;DHT22;11266;51.522;6.302;2023-04-29T00:24:15;11.60;99.90
22202;DHT22;11266;51.522;6.302;2023-04-29T00:25:01;11.60;99.90
22202;DHT22;11266;51.522;6.302;2023-04-29T00:25:47;11.50;99.90
22202;DHT22;11266;51.522;6.302;2023-04-29T00:26:32;11.50;99.90
22202;DHT22;11266;51.522;6.302;2023-04-29T00:27:19;11.60;99.90
22202;DHT22;11266;51.522;6.302;2023-04-29T00:28:05;11.60;99.90
22202;DHT22;11266;51.522;6.302;2023-04-29T00:28:51;11.60;99.90
22202;DHT22;11266;51.522;6.302;2023-04-29T00:29:37;11.60;99.90
22202;DHT22;11266;51.522;6.302;2023-04-29T00:30:23;11.50;99.90
22202;DHT22;11266;51.522;6.302;2023-04-29T00:31:08;11.50;99.90
22202;DHT22;11266;51.522;6.302;2023-04-29T00:31:55;11.50;99.90
22202;DHT22;11266;51.522;6.302;2023-04-29T00:32:40;11.50;99.90
22202;DHT22;11266;51.522;6.302;2023-04-29T00:33:27;11.50;99.90
22202;DHT22;11266;51.522;6.302;2023-04-29T00:34:13;11.50;99.90
22202;DHT22;11266;51.522;6.302;2023-04-29T00:34:59;11.40;99.90
22202;DHT22;11266;51.522;6.302;2023-04-29T00:35:46;11.40;99.90
22202;DHT22;11266;51.522;6.302;2023-04-29T00:36:31;11.40;99.90
22202;DHT22;11266;51.522;6.302;2023-04-29T00:37:17;11.40;99.90
22202;DHT22;11266;51.522;6.302;2023-04-29T00:38:03;11.40;99.90
22202;DHT22;11266;51.522;6.302;2023-04-29T00:38:49;11.40;99.90
22202;DHT22;11266;51.522;6.302;2023-04-29T00:39:35;11.40;99.90
22202;DHT22;11266;51.522;6.302;2023-04-29T00:40:21;11.40;99.90
22202;DHT22;11266;51.522;6.302;2023-04-29T00:41:07;11.40;99.90
22202;DHT22;11266;51.522;6.302;2023-04-29T00:41:53;11.40;99.90
22202;DHT22;11266;51.522;6.302;2023-04-29T00:42:38;11.40;99.90
22202;DHT22;11266;51.522;6.302;2023-04-29T00:43:24;11.40;99.90
22202;DHT22;11266;51.522;6.302;2023-04-29T00:44:10;11.30;99.90
22202;DHT22;11266;51.522;6.302;2023-04-29T00:44:57;11.40;99.90
22202;DHT22;11266;51.522;6.302;2023-04-29T00:45:43;11.40;99.90
22202;DHT22;11266;51.522;6.302;2023-04-29T00:46:31;11.40;99.90
22202;DHT22;11266;51.522;6.302;2023-04-29T00:47:17;11.40;99.90
22202;DHT22;11266;51.522;6.302;2023-04-29T00:48:03;11.40;99.90
22202;DHT22;11266;51.522;6.302;2023-04-29T00:48:49;11.30;99.90
22202;DHT22;11266;51.522;6.302;2023-04-29T00:49:40;11.30;99.90
22202;DHT22;11266;51.522;6.302;2023-04-29T00:50:26;11.30;99.90
22202;DHT22;11266;51.522;6.302;2023-04-29T00:51:12;11.30;99.90
22202;DHT22;11266;51.522;6.302;2023-04-29T00:51:58;11.30;99.90
22202;DHT22;11266;51.522;6.302;2023-04-29T00:52:45;11.30;99.90
22202;DHT22;11266;51.522;6.302;2023-04-29T00:53:32;11.30;99.90
22202;DHT22;11266;51.522;6.302;2023-04-29T00:54:19;11.30;99.90
22202;DHT22;11266;51.522;6.302;2023-04-29T00:55:06;11.40;99.90
22202;DHT22;11266;51.522;6.302;2023-04-29T00:55:54;11.40;99.90
22202;DHT22;11266;51.522;6.302;2023-04-29T00:56:42;11.40;99.90
22202;DHT22;11266;51.522;6.302;2023-04-29T00:57:29;11.40;99.90
22202;DHT22;11266;51.522;6.302;2023-04-29T00:58:16;11.40;99.90
22202;DHT22;11266;51.522;6.302;2023-04-29T00:59:02;11.30;99.90
22202;DHT22;11266;51.522;6.302;2023-04-29T00:59:49;11.30;99.90
22202;DHT22;11266;51.522;6.302;2023-04-29T01:00:35;11.30;99.90
22202;DHT22;11266;51.522;6.302;2023-04-29T01:01:21;11.20;99.90
22202;DHT22;11266;51.522;6.302;2023-04-29T01:02:08;11.20;99.90
22202;DHT22;11266;51.522;6.302;2023-04-29T01:02:53;11.20;99.90
22202;DHT22;11266;51.522;6.302;2023-04-29T01:03:41;11.30;99.90
22202;DHT22;11266;51.522;6.302;2023-04-29T01:04:27;11.20;99.90
22202;DHT22;11266;51.522;6.302;2023-04-29T01:05:13;11.20;99.90
22202;DHT22;11266;51.522;6.302;2023-04-29T01:10:30;11.20;99.90
22202;DHT22;11266;51.522;6.302;2023-04-29T01:11:22;11.20;99.90
22202;DHT22;11266;51.522;6.302;2023-04-29T01:12:37;11.20;99.90
22202;DHT22;11266;51.522;6.302;2023-04-29T01:13:57;11.20;99.90
22202;DHT22;11266;51.522;6.302;2023-04-29T01:14:42;11.10;99.90
22202;DHT22;11266;51.522;6.302;2023-04-29T01:15:43;11.10;99.90
22202;DHT22;11266;51.522;6.302;2023-04-29T01:16:43;11.10;99.90
22202;DHT22;11266;51.522;6.302;2023-04-29T01:17:41;11.10;99.90
22202;DHT22;11266;51.522;6.302;2023-04-29T01:18:32;11.10;99.90
22202;DHT22;11266;51.522;6.302;2023-04-29T01:19:43;11.20;99.90
22202;DHT22;11266;51.522;6.302;2023-04-29T01:20:32;11.20;99.90
22202;DHT22;11266;51.522;6.302;2023-04-29T01:21:19;11.10;99.90
22202;DHT22;11266;51.522;6.302;2023-04-29T01:22:05;11.10;99.90
22202;DHT22;11266;51.522;6.302;2023-04-29T01:22:51;11.10;99.90
22202;DHT22;11266;51.522;6.302;2023-04-29T01:23:37;11.10;99.90
22202;DHT22;11266;51.522;6.302;2023-04-29T01:24:23;11.00;99.90
22202;DHT22;11266;51.522;6.302;2023-04-29T01:25:09;11.00;99.90
22202;DHT22;11266;51.522;6.302;2023-04-29T01:25:56;11.00;99.90
22202;DHT22;11266;51.522;6.302;2023-04-29T01:26:54;11.00;99.90
22202;DHT22;11266;51.522;6.302;2023-04-29T01:29:00;11.00;99.90
22202;DHT22;11266;51.522;6.302;2023-04-29T01:30:13;11.00;99.90
22202;DHT22;11266;51.522;6.302;2023-04-29T01:32:05;11.00;99.90
22202;DHT22;11266;51.522;6.302;2023-04-29T01:34:21;10.90;99.90
22202;DHT22;11266;51.522;6.302;2023-04-29T01:36:22;10.90;99.90
22202;DHT22;11266;51.522;6.302;2023-04-29T01:37:48;10.90;99.90
22202;DHT22;11266;51.522;6.302;2023-04-29T01:40:46;10.90;99.90
22202;DHT22;11266;51.522;6.302;2023-04-29T01:41:42;10.90;99.90
22202;DHT22;11266;51.522;6.302;2023-04-29T01:42:44;10.90;99.90
22202;DHT22;11266;51.522;6.302;2023-04-29T01:43:31;11.00;99.90
22202;DHT22;11266;51.522;6.302;2023-04-29T01:44:22;10.90;99.90
22202;DHT22;11266;51.522;6.302;2023-04-29T01:45:10;10.90;99.90
22202;DHT22;11266;51.522;6.302;2023-04-29T01:45:57;11.00;99.90
22202;DHT22;11266;51.522;6.302;2023-04-29T01:46:49;10.90;99.90
22202;DHT22;11266;51.522;6.302;2023-04-29T01:47:39;10.90;99.90
22202;DHT22;11266;51.522;6.302;2023-04-29T01:48:25;10.90;99.90
22202;DHT22;11266;51.522;6.302;2023-04-29T01:49:11;10.80;99.90
22202;DHT22;11266;51.522;6.302;2023-04-29T01:49:57;10.80;99.90
22202;DHT22;11266;51.522;6.302;2023-04-29T01:50:43;10.80;99.90
22202;DHT22;11266;51.522;6.302;2023-04-29T01:51:29;10.80;99.90
22202;DHT22;11266;51.522;6.302;2023-04-29T01:52:15;10.80;99.90
22202;DHT22;11266;51.522;6.302;2023-04-29T01:53:01;10.80;99.90
22202;DHT22;11266;51.522;6.302;2023-04-29T01:53:47;10.80;99.90
22202;DHT22;11266;51.522;6.302;2023-04-29T01:54:33;10.80;99.90
22202;DHT22;11266;51.522;6.302;2023-04-29T01:55:22;10.80;99.90
22202;DHT22;11266;51.522;6.302;2023-04-29T01:56:08;10.80;99.90
22202;DHT22;11266;51.522;6.302;2023-04-29T01:56:54;10.80;99.90
22202;DHT22;11266;51.522;6.302;2023-04-29T01:57:40;10.70;99.90
22202;DHT22;11266;51.522;6.302;2023-04-29T01:58:26;10.70;99.90
22202;DHT22;11266;51.522;6.302;2023-04-29T01:59:12;10.70;99.90
22202;DHT22;11266;51.522;6.302;2023-04-29T01:59:58;10.70;99.90
22202;DHT22;11266;51.522;6.302;2023-04-29T02:00:44;10.70;99.90
22202;DHT22;11266;51.522;6.302;2023-04-29T02:01:30;10.70;99.90
22202;DHT22;11266;51.522;6.302;2023-04-29T02:02:16;10.60;99.90
22202;DHT22;11266;51.522;6.302;2023-04-29T02:03:05;10.70;99.90
22202;DHT22;11266;51.522;6.302;2023-04-29T02:03:51;10.60;99.90
22202;DHT22;11266;51.522;6.302;2023-04-29T02:04:37;10.60;99.90
22202;DHT22;11266;51.522;6.302;2023-04-29T02:05:23;10.60;99.90
22202;DHT22;11266;51.522;6.302;2023-04-29T02:06:09;10.60;99.90
22202;DHT22;11266;51.522;6.302;2023-04-29T02:06:55;10.70;99.90
22202;DHT22;11266;51.522;6.302;2023-04-29T02:07:40;10.70;99.90
22202;DHT22;11266;51.522;6.302;2023-04-29T02:08:29;10.70;99.90
22202;DHT22;11266;51.522;6.302;2023-04-29T02:09:15;10.70;99.90
22202;DHT22;11266;51.522;6.302;2023-04-29T02:10:01;10.70;99.90
22202;DHT22;11266;51.522;6.302;2023-04-29T02:10:57;10.70;99.90
22202;DHT22;11266;51.522;6.302;2023-04-29T02:11:43;10.70;99.90
22202;DHT22;11266;51.522;6.302;2023-04-29T02:12:29;10.60;99.90
22202;DHT22;11266;51.522;6.302;2023-04-29T02:13:15;10.60;99.90
22202;DHT22;11266;51.522;6.302;2023-04-29T02:14:00;10.70;99.90
22202;DHT22;11266;51.522;6.302;2023-04-29T02:14:46;10.70;99.90
22202;DHT22;11266;51.522;6.302;2023-04-29T02:15:35;10.70;99.90
22202;DHT22;11266;51.522;6.302;2023-04-29T02:16:20;10.60;99.90
22202;DHT22;11266;51.522;6.302;2023-04-29T02:17:06;10.70;99.90
22202;DHT22;11266;51.522;6.302;2023-04-29T02:17:52;10.70;99.90
22202;DHT22;11266;51.522;6.302;2023-04-29T02:18:39;10.70;99.90
22202;DHT22;11266;51.522;6.302;2023-04-29T02:19:25;10.70;99.90
22202;DHT22;11266;51.522;6.302;2023-04-29T02:20:11;10.70;99.90
22202;DHT22;11266;51.522;6.302;2023-04-29T02:21:00;10.70;99.90
22202;DHT22;11266;51.522;6.302;2023-04-29T02:21:46;10.70;99.90
22202;DHT22;11266;51.522;6.302;2023-04-29T02:22:32;10.70;99.90
22202;DHT22;11266;51.522;6.302;2023-04-29T02:23:18;10.60;99.90
22202;DHT22;11266;51.522;6.302;2023-04-29T02:24:04;10.60;99.90
22202;DHT22;11266;51.522;6.302;2023-04-29T02:24:50;10.70;99.90
22202;DHT22;11266;51.522;6.302;2023-04-29T02:25:36;10.70;99.90
22202;DHT22;11266;51.522;6.302;2023-04-29T02:26:22;10.70;99.90
22202;DHT22;11266;51.522;6.302;2023-04-29T02:27:08;10.70;99.90
22202;DHT22;11266;51.522;6.302;2023-04-29T02:27:54;10.60;99.90
22202;DHT22;11266;51.522;6.302;2023-04-29T02:28:40;10.70;99.90
22202;DHT22;11266;51.522;6.302;2023-04-29T02:29:26;10.60;99.90
22202;DHT22;11266;51.522;6.302;2023-04-29T02:30:14;10.60;99.90
22202;DHT22;11266;51.522;6.302;2023-04-29T02:31:00;10.60;99.90
22202;DHT22;11266;51.522;6.302;2023-04-29T02:31:46;10.60;99.90
22202;DHT22;11266;51.522;6.302;2023-04-29T02:32:31;10.60;99.90
22202;DHT22;11266;51.522;6.302;2023-04-29T02:33:17;10.60;99.90
22202;DHT22;11266;51.522;6.302;2023-04-29T02:34:04;10.50;99.90
22202;DHT22;11266;51.522;6.302;2023-04-29T02:34:49;10.50;99.90
22202;DHT22;11266;51.522;6.302;2023-04-29T02:35:36;10.50;99.90
22202;DHT22;11266;51.522;6.302;2023-04-29T02:36:21;10.60;99.90
22202;DHT22;11266;51.522;6.302;2023-04-29T02:37:09;10.50;99.90
22202;DHT22;11266;51.522;6.302;2023-04-29T02:37:55;10.50;99.90
22202;DHT22;11266;51.522;6.302;2023-04-29T02:38:41;10.50;99.90
22202;DHT22;11266;51.522;6.302;2023-04-29T02:39:27;10.50;99.90
22202;DHT22;11266;51.522;6.302;2023-04-29T02:40:13;10.50;99.90
22202;DHT22;11266;51.522;6.302;2023-04-29T02:40:59;10.50;99.90
22202;DHT22;11266;51.522;6.302;2023-04-29T02:41:45;10.50;99.90
22202;DHT22;11266;51.522;6.302;2023-04-29T02:42:31;10.50;99.90
22202;DHT22;11266;51.522;6.302;2023-04-29T02:43:16;10.50;99.90
22202;DHT22;11266;51.522;6.302;2023-04-29T02:44:02;10.40;99.90
22202;DHT22;11266;51.522;6.302;2023-04-29T02:44:48;10.40;99.90
22202;DHT22;11266;51.522;6.302;2023-04-29T02:45:34;10.40;99.90
22202;DHT22;11266;51.522;6.302;2023-04-29T02:46:20;10.40;99.90
22202;DHT22;11266;51.522;6.302;2023-04-29T02:47:06;10.40;99.90
22202;DHT22;11266;51.522;6.302;2023-04-29T02:47:52;10.40;99.90
22202;DHT22;11266;51.522;6.302;2023-04-29T02:48:37;10.40;99.90
22202;DHT22;11266;51.522;6.302;2023-04-29T02:49:23;10.40;99.90
22202;DHT22;11266;51.522;6.302;2023-04-29T02:50:09;10.40;99.90
22202;DHT22;11266;51.522;6.302;2023-04-29T02:50:55;10.40;99.90
22202;DHT22;11266;51.522;6.302;2023-04-29T02:51:41;10.40;99.90
22202;DHT22;11266;51.522;6.302;2023-04-29T02:52:26;10.40;99.90
22202;DHT22;11266;51.522;6.302;2023-04-29T02:53:12;10.40;99.90
22202;DHT22;11266;51.522;6.302;2023-04-29T02:53:58;10.40;99.90
22202;DHT22;11266;51.522;6.302;2023-04-29T02:54:44;10.40;99.90
22202;DHT22;11266;51.522;6.302;2023-04-29T02:55:30;10.40;99.90
22202;DHT22;11266;51.522;6.302;2023-04-29T02:56:16;10.40;99.90
22202;DHT22;11266;51.522;6.302;2023-04-29T02:57:02;10.40;99.90
22202;DHT22;11266;51.522;6.302;2023-04-29T02:57:48;10.40;99.90
22202;DHT22;11266;51.522;6.302;2023-04-29T02:58:33;10.40;99.90
22202;DHT22;11266;51.522;6.302;2023-04-29T02:59:19;10.40;99.90
22202;DHT22;11266;51.522;6.302;2023-04-29T03:00:06;10.40;99.90
22202;DHT22;11266;51.522;6.302;2023-04-29T03:00:52;10.40;99.90
22202;DHT22;11266;51.522;6.302;2023-04-29T03:01:37;10.40;99.90
22202;DHT22;11266;51.522;6.302;2023-04-29T03:02:23;10.40;99.90
22202;DHT22;11266;51.522;6.302;2023-04-29T03:03:09;10.40;99.90
22202;DHT22;11266;51.522;6.302;2023-04-29T03:03:55;10.40;99.90
22202;DHT22;11266;51.522;6.302;2023-04-29T03:04:42;10.40;99.90
22202;DHT22;11266;51.522;6.302;2023-04-29T03:05:27;10.40;99.90
22202;DHT22;11266;51.522;6.302;2023-04-29T03:06:13;10.40;99.90
22202;DHT22;11266;51.522;6.302;2023-04-29T03:07:00;10.40;99.90
22202;DHT22;11266;51.522;6.302;2023-04-29T03:07:46;10.40;99.90
22202;DHT22;11266;51.522;6.302;2023-04-29T03:08:31;10.50;99.90
22202;DHT22;11266;51.522;6.302;2023-04-29T03:09:17;10.50;99.90
22202;DHT22;11266;51.522;6.302;2023-04-29T03:10:04;10.50;99.90
22202;DHT22;11266;51.522;6.302;2023-04-29T03:10:50;10.40;99.90
22202;DHT22;11266;51.522;6.302;2023-04-29T03:11:36;10.40;99.90
22202;DHT22;11266;51.522;6.302;2023-04-29T03:12:21;10.40;99.90
22202;DHT22;11266;51.522;6.302;2023-04-29T03:13:07;10.40;99.90
22202;DHT22;11266;51.522;6.302;2023-04-29T03:13:53;10.40;99.90
22202;DHT22;11266;51.522;6.302;2023-04-29T03:14:39;10.40;99.90
22202;DHT22;11266;51.522;6.302;2023-04-29T03:15:25;10.40;99.90
22202;DHT22;11266;51.522;6.302;2023-04-29T03:16:11;10.40;99.90
22202;DHT22;11266;51.522;6.302;2023-04-29T03:17:01;10.50;99.90
22202;DHT22;11266;51.522;6.302;2023-04-29T03:17:47;10.50;99.90
22202;DHT22;11266;51.522;6.302;2023-04-29T03:18:33;10.40;99.90
22202;DHT22;11266;51.522;6.302;2023-04-29T03:19:18;10.40;99.90
22202;DHT22;11266;51.522;6.302;2023-04-29T03:20:05;10.40;99.90
22202;DHT22;11266;51.522;6.302;2023-04-29T03:20:51;10.40;99.90
22202;DHT22;11266;51.522;6.302;2023-04-29T03:21:36;10.40;99.90
22202;DHT22;11266;51.522;6.302;2023-04-29T03:22:22;10.40;99.90
22202;DHT22;11266;51.522;6.302;2023-04-29T03:23:08;10.40;99.90
22202;DHT22;11266;51.522;6.302;2023-04-29T03:23:54;10.40;99.90
22202;DHT22;11266;51.522;6.302;2023-04-29T03:24:40;10.40;99.90
22202;DHT22;11266;51.522;6.302;2023-04-29T03:25:26;10.40;99.90
22202;DHT22;11266;51.522;6.302;2023-04-29T03:26:13;10.40;99.90
22202;DHT22;11266;51.522;6.302;2023-04-29T03:26:58;10.40;99.90
22202;DHT22;11266;51.522;6.302;2023-04-29T03:27:49;10.50;99.90
22202;DHT22;11266;51.522;6.302;2023-04-29T03:28:34;10.50;99.90
22202;DHT22;11266;51.522;6.302;2023-04-29T03:29:20;10.50;99.90
22202;DHT22;11266;51.522;6.302;2023-04-29T03:30:06;10.40;99.90
22202;DHT22;11266;51.522;6.302;2023-04-29T03:30:53;10.40;99.90
22202;DHT22;11266;51.522;6.302;2023-04-29T03:31:41;10.40;99.90
22202;DHT22;11266;51.522;6.302;2023-04-29T03:32:26;10.40;99.90
22202;DHT22;11266;51.522;6.302;2023-04-29T03:33:12;10.40;99.90
22202;DHT22;11266;51.522;6.302;2023-04-29T03:33:58;10.40;99.90
22202;DHT22;11266;51.522;6.302;2023-04-29T03:34:44;10.40;99.90
22202;DHT22;11266;51.522;6.302;2023-04-29T03:35:30;10.40;99.90
22202;DHT22;11266;51.522;6.302;2023-04-29T03:36:16;10.40;99.90
22202;DHT22;11266;51.522;6.302;2023-04-29T03:37:01;10.40;99.90
22202;DHT22;11266;51.522;6.302;2023-04-29T03:37:47;10.40;99.90
22202;DHT22;11266;51.522;6.302;2023-04-29T03:38:33;10.40;99.90
22202;DHT22;11266;51.522;6.302;2023-04-29T03:39:19;10.40;99.90
22202;DHT22;11266;51.522;6.302;2023-04-29T03:40:05;10.30;99.90
22202;DHT22;11266;51.522;6.302;2023-04-29T03:40:51;10.30;99.90
22202;DHT22;11266;51.522;6.302;2023-04-29T03:41:40;10.30;99.90
22202;DHT22;11266;51.522;6.302;2023-04-29T03:42:26;10.30;99.90
22202;DHT22;11266;51.522;6.302;2023-04-29T03:43:11;10.30;99.90
22202;DHT22;11266;51.522;6.302;2023-04-29T03:43:58;10.30;99.90
22202;DHT22;11266;51.522;6.302;2023-04-29T03:44:45;10.30;99.90
22202;DHT22;11266;51.522;6.302;2023-04-29T03:45:31;10.30;99.90
22202;DHT22;11266;51.522;6.302;2023-04-29T03:46:16;10.30;99.90
22202;DHT22;11266;51.522;6.302;2023-04-29T03:47:02;10.30;99.90
22202;DHT22;11266;51.522;6.302;2023-04-29T03:47:48;10.30;99.90
22202;DHT22;11266;51.522;6.302;2023-04-29T03:48:34;10.30;99.90
22202;DHT22;11266;51.522;6.302;2023-04-29T03:49:21;10.30;99.90
22202;DHT22;11266;51.522;6.302;2023-04-29T03:50:08;10.30;99.90
22202;DHT22;11266;51.522;6.302;2023-04-29T03:50:54;10.30;99.90
22202;DHT22;11266;51.522;6.302;2023-04-29T03:51:40;10.30;99.90
22202;DHT22;11266;51.522;6.302;2023-04-29T03:52:26;10.30;99.90
22202;DHT22;11266;51.522;6.302;2023-04-29T03:53:12;10.30;99.90
22202;DHT22;11266;51.522;6.302;2023-04-29T03:53:58;10.30;99.90
22202;DHT22;11266;51.522;6.302;2023-04-29T03:54:44;10.30;99.90
22202;DHT22;11266;51.522;6.302;2023-04-29T03:55:30;10.30;99.90
22202;DHT22;11266;51.522;6.302;2023-04-29T03:56:16;10.30;99.90
22202;DHT22;11266;51.522;6.302;2023-04-29T03:57:01;10.20;99.90
22202;DHT22;11266;51.522;6.302;2023-04-29T03:57:49;10.30;99.90
22202;DHT22;11266;51.522;6.302;2023-04-29T03:58:35;10.30;99.90
22202;DHT22;11266;51.522;6.302;2023-04-29T03:59:20;10.30;99.90
22202;DHT22;11266;51.522;6.302;2023-04-29T04:00:07;10.30;99.90
22202;DHT22;11266;51.522;6.302;2023-04-29T04:00:54;10.30;99.90
22202;DHT22;11266;51.522;6.302;2023-04-29T04:01:40;10.30;99.90
22202;DHT22;11266;51.522;6.302;2023-04-29T04:02:26;10.30;99.90
22202;DHT22;11266;51.522;6.302;2023-04-29T04:03:12;10.20;99.90
22202;DHT22;11266;51.522;6.302;2023-04-29T04:03:58;10.20;99.90
22202;DHT22;11266;51.522;6.302;2023-04-29T04:04:44;10.30;99.90
22202;DHT22;11266;51.522;6.302;2023-04-29T04:05:30;10.20;99.90
22202;DHT22;11266;51.522;6.302;2023-04-29T04:06:16;10.20;99.90
22202;DHT22;11266;51.522;6.302;2023-04-29T04:07:02;10.30;99.90
22202;DHT22;11266;51.522;6.302;2023-04-29T04:07:48;10.30;99.90
22202;DHT22;11266;51.522;6.302;2023-04-29T04:08:34;10.30;99.90
22202;DHT22;11266;51.522;6.302;2023-04-29T04:09:20;10.30;99.90
22202;DHT22;11266;51.522;6.302;2023-04-29T04:10:06;10.30;99.90
22202;DHT22;11266;51.522;6.302;2023-04-29T04:10:51;10.30;99.90
22202;DHT22;11266;51.522;6.302;2023-04-29T04:11:37;10.30;99.90
22202;DHT22;11266;51.522;6.302;2023-04-29T04:12:23;10.30;99.90
22202;DHT22;11266;51.522;6.302;2023-04-29T04:13:09;10.30;99.90
22202;DHT22;11266;51.522;6.302;2023-04-29T04:13:55;10.30;99.90
22202;DHT22;11266;51.522;6.302;2023-04-29T04:14:40;10.30;99.90
22202;DHT22;11266;51.522;6.302;2023-04-29T04:15:26;10.30;99.90
22202;DHT22;11266;51.522;6.302;2023-04-29T04:16:12;10.20;99.90
22202;DHT22;11266;51.522;6.302;2023-04-29T04:16:58;10.30;99.90
22202;DHT22;11266;51.522;6.302;2023-04-29T04:17:43;10.20;99.90
22202;DHT22;11266;51.522;6.302;2023-04-29T04:18:29;10.20;99.90
22202;DHT22;11266;51.522;6.302;2023-04-29T04:19:15;10.20;99.90
22202;DHT22;11266;51.522;6.302;2023-04-29T04:20:01;10.30;99.90
22202;DHT22;11266;51.522;6.302;2023-04-29T04:20:47;10.30;99.90
22202;DHT22;11266;51.522;6.302;2023-04-29T04:21:34;10.30;99.90
22202;DHT22;11266;51.522;6.302;2023-04-29T04:22:20;10.30;99.90
22202;DHT22;11266;51.522;6.302;2023-04-29T04:23:06;10.20;99.90
22202;DHT22;11266;51.522;6.302;2023-04-29T04:23:52;10.20;99.90
22202;DHT22;11266;51.522;6.302;2023-04-29T04:24:37;10.20;99.90
22202;DHT22;11266;51.522;6.302;2023-04-29T04:25:23;10.20;99.90
22202;DHT22;11266;51.522;6.302;2023-04-29T04:26:09;10.20;99.90
22202;DHT22;11266;51.522;6.302;2023-04-29T04:26:55;10.20;99.90
22202;DHT22;11266;51.522;6.302;2023-04-29T04:27:41;10.20;99.90
22202;DHT22;11266;51.522;6.302;2023-04-29T04:28:27;10.20;99.90
22202;DHT22;11266;51.522;6.302;2023-04-29T04:29:13;10.30;99.90
22202;DHT22;11266;51.522;6.302;2023-04-29T04:29:58;10.30;99.90
22202;DHT22;11266;51.522;6.302;2023-04-29T04:30:45;10.30;99.90
22202;DHT22;11266;51.522;6.302;2023-04-29T04:31:31;10.20;99.90
22202;DHT22;11266;51.522;6.302;2023-04-29T04:32:17;10.20;99.90
22202;DHT22;11266;51.522;6.302;2023-04-29T04:33:02;10.20;99.90
22202;DHT22;11266;51.522;6.302;2023-04-29T04:33:48;10.30;99.90
22202;DHT22;11266;51.522;6.302;2023-04-29T04:34:34;10.20;99.90
22202;DHT22;11266;51.522;6.302;2023-04-29T04:35:20;10.20;99.90
22202;DHT22;11266;51.522;6.302;2023-04-29T04:36:06;10.20;99.90
22202;DHT22;11266;51.522;6.302;2023-04-29T04:36:52;10.10;99.90
22202;DHT22;11266;51.522;6.302;2023-04-29T04:37:38;10.20;99.90
22202;DHT22;11266;51.522;6.302;2023-04-29T04:38:24;10.20;99.90
22202;DHT22;11266;51.522;6.302;2023-04-29T04:39:10;10.20;99.90
22202;DHT22;11266;51.522;6.302;2023-04-29T04:39:56;10.10;99.90
22202;DHT22;11266;51.522;6.302;2023-04-29T04:40:43;10.10;99.90
22202;DHT22;11266;51.522;6.302;2023-04-29T04:41:28;10.20;99.90
22202;DHT22;11266;51.522;6.302;2023-04-29T04:42:16;10.20;99.90
22202;DHT22;11266;51.522;6.302;2023-04-29T04:43:02;10.20;99.90
22202;DHT22;11266;51.522;6.302;2023-04-29T04:43:48;10.20;99.90
22202;DHT22;11266;51.522;6.302;2023-04-29T04:44:34;10.20;99.90
22202;DHT22;11266;51.522;6.302;2023-04-29T04:45:20;10.20;99.90
22202;DHT22;11266;51.522;6.302;2023-04-29T04:46:10;10.20;99.90
22202;DHT22;11266;51.522;6.302;2023-04-29T04:46:56;10.20;99.90
22202;DHT22;11266;51.522;6.302;2023-04-29T04:47:42;10.10;99.90
22202;DHT22;11266;51.522;6.302;2023-04-29T04:48:28;10.10;99.90
22202;DHT22;11266;51.522;6.302;2023-04-29T04:49:15;10.10;99.90
22202;DHT22;11266;51.522;6.302;2023-04-29T04:50:00;10.10;99.90
22202;DHT22;11266;51.522;6.302;2023-04-29T04:50:48;10.10;99.90
22202;DHT22;11266;51.522;6.302;2023-04-29T04:51:34;10.10;99.90
22202;DHT22;11266;51.522;6.302;2023-04-29T04:52:20;10.10;99.90
22202;DHT22;11266;51.522;6.302;2023-04-29T04:53:06;10.10;99.90
22202;DHT22;11266;51.522;6.302;2023-04-29T04:53:52;10.10;99.90
22202;DHT22;11266;51.522;6.302;2023-04-29T04:54:38;10.20;99.90
22202;DHT22;11266;51.522;6.302;2023-04-29T04:55:24;10.20;99.90
22202;DHT22;11266;51.522;6.302;2023-04-29T04:56:10;10.20;99.90
22202;DHT22;11266;51.522;6.302;2023-04-29T04:56:56;10.20;99.90
22202;DHT22;11266;51.522;6.302;2023-04-29T04:57:42;10.10;99.90
22202;DHT22;11266;51.522;6.302;2023-04-29T04:58:28;10.10;99.90
22202;DHT22;11266;51.522;6.302;2023-04-29T04:59:15;10.10;99.90
22202;DHT22;11266;51.522;6.302;2023-04-29T05:00:01;10.10;99.90
22202;DHT22;11266;51.522;6.302;2023-04-29T05:00:48;10.10;99.90
22202;DHT22;11266;51.522;6.302;2023-04-29T05:01:36;10.10;99.90
22202;DHT22;11266;51.522;6.302;2023-04-29T05:02:21;10.10;99.90
22202;DHT22;11266;51.522;6.302;2023-04-29T05:03:07;10.10;99.90
22202;DHT22;11266;51.522;6.302;2023-04-29T05:03:53;10.20;99.90
22202;DHT22;11266;51.522;6.302;2023-04-29T05:04:39;10.20;99.90
22202;DHT22;11266;51.522;6.302;2023-04-29T05:05:24;10.20;99.90
22202;DHT22;11266;51.522;6.302;2023-04-29T05:06:10;10.20;99.90
22202;DHT22;11266;51.522;6.302;2023-04-29T05:06:57;10.10;99.90
22202;DHT22;11266;51.522;6.302;2023-04-29T05:07:42;10.20;99.90